Time;durP1;ratioP1;P1;durP2;ratioP2;P2;SDS_P1;SDS_P2;PMS_P1;PMS_P2;Temp;Humidity;BMP_temperature;BMP_pressure;BME280_temperature;BME280_humidity;BME280_pressure;Samples;Min_cycle;Max_cycle;Signal;HPM_P1;HPM_P2
2023/07/25 00:00:28;;;;;;;4.45;1.17;;;14.80;99.90;;;;;;5023155;28;20376;-72
2023/07/25 00:02:53;;;;;;;6.45;1.83;;;14.80;99.90;;;;;;5040347;28;20056;-71
2023/07/25 00:05:19;;;;;;;3.80;1.85;;;14.80;99.90;;;;;;5048415;28;20044;-71
2023/07/25 00:07:45;;;;;;;4.75;1.52;;;14.90;99.90;;;;;;5048474;28;20454;-71
2023/07/25 00:10:10;;;;;;;8.45;1.58;;;14.90;99.90;;;;;;5021509;28;20041;-71
2023/07/25 00:12:37;;;;;;;2.88;1.02;;;14.90;99.90;;;;;;5026812;28;20057;-72
2023/07/25 00:15:04;;;;;;;4.15;2.03;;;14.80;99.90;;;;;;5013201;28;20122;-72
2023/07/25 00:17:30;;;;;;;7.97;1.00;;;14.80;99.90;;;;;;5047377;28;20041;-72
2023/07/25 00:19:55;;;;;;;5.03;1.40;;;14.80;99.90;;;;;;5048029;28;20113;-71
2023/07/25 00:22:21;;;;;;;5.90;2.25;;;14.80;99.90;;;;;;5046521;28;20128;-72
2023/07/25 00:24:46;;;;;;;5.25;1.25;;;14.80;99.90;;;;;;5048184;28;20430;-71
2023/07/25 00:27:12;;;;;;;1.92;1.05;;;14.80;99.90;;;;;;5044263;28;20665;-71
2023/07/25 00:29:38;;;;;;;5.15;1.17;;;14.80;99.90;;;;;;5046028;28;20049;-71
2023/07/25 00:32:04;;;;;;;3.80;1.30;;;14.70;99.90;;;;;;5043255;28;20037;-72
2023/07/25 00:34:29;;;;;;;3.80;1.20;;;14.80;99.90;;;;;;5045208;28;20044;-72
2023/07/25 00:36:55;;;;;;;5.88;1.10;;;14.70;99.90;;;;;;5029836;28;20038;-71
2023/07/25 00:39:21;;;;;;;4.07;1.70;;;14.70;99.90;;;;;;5025214;28;20056;-71
2023/07/25 00:41:46;;;;;;;2.70;1.05;;;14.70;99.90;;;;;;5032426;28;20672;-71
2023/07/25 00:44:12;;;;;;;4.40;1.52;;;14.70;99.90;;;;;;5030029;28;20717;-71
2023/07/25 00:46:37;;;;;;;4.25;1.13;;;14.70;99.90;;;;;;5036180;28;20095;-72
2023/07/25 00:49:05;;;;;;;6.18;1.25;;;14.70;99.90;;;;;;5024014;28;20044;-72
2023/07/25 00:51:32;;;;;;;3.88;1.13;;;14.70;99.90;;;;;;5023788;28;20052;-72
2023/07/25 00:53:57;;;;;;;1.23;0.90;;;14.70;99.90;;;;;;5025837;28;20120;-71
2023/07/25 00:56:23;;;;;;;5.40;1.00;;;14.70;99.90;;;;;;5023664;28;20049;-71
2023/07/25 00:58:49;;;;;;;2.10;1.00;;;14.70;99.90;;;;;;5026242;28;20358;-71
2023/07/25 01:01:15;;;;;;;5.32;2.08;;;14.70;99.90;;;;;;5032109;28;20498;-71
2023/07/25 01:03:41;;;;;;;3.50;0.90;;;14.70;99.90;;;;;;5109060;22;20077;-72
2023/07/25 01:06:12;;;;;;;1.15;0.90;;;14.70;99.90;;;;;;5024633;28;20041;-72
2023/07/25 01:08:56;;;;;;;2.22;1.08;;;14.70;99.90;;;;;;5024618;28;20534;-71
2023/07/25 01:11:23;;;;;;;1.50;1.00;;;14.70;99.90;;;;;;5022816;28;20049;-72
2023/07/25 01:13:50;;;;;;;5.15;1.88;;;14.70;99.90;;;;;;5023996;28;20049;-72
2023/07/25 01:16:25;;;;;;;1.50;1.08;;;14.70;99.90;;;;;;5024808;28;20112;-72
2023/07/25 01:18:52;;;;;;;2.83;0.77;;;14.70;99.90;;;;;;5024412;28;20056;-72
2023/07/25 01:21:18;;;;;;;4.20;1.73;;;14.80;99.90;;;;;;5023938;28;20069;-71
2023/07/25 01:23:45;;;;;;;4.43;1.42;;;14.70;99.90;;;;;;5024296;28;20102;-72
2023/07/25 01:26:10;;;;;;;2.42;2.13;;;14.80;99.90;;;;;;5024104;28;20068;-72
2023/07/25 01:28:39;;;;;;;5.18;1.20;;;14.70;99.90;;;;;;5024984;28;20696;-71
2023/07/25 01:31:04;;;;;;;7.63;1.67;;;14.80;99.90;;;;;;5024128;28;20128;-72
2023/07/25 01:33:30;;;;;;;4.75;1.75;;;14.70;99.90;;;;;;5025118;28;20124;-72
2023/07/25 01:35:56;;;;;;;3.60;1.42;;;14.80;99.90;;;;;;5025465;28;20049;-72
2023/07/25 01:38:21;;;;;;;6.13;1.73;;;14.70;99.90;;;;;;5023668;28;20076;-72
2023/07/25 01:40:47;;;;;;;5.90;1.13;;;14.80;99.90;;;;;;5023361;28;20424;-72
2023/07/25 01:43:12;;;;;;;1.35;1.10;;;14.80;99.90;;;;;;5024945;28;20372;-72
2023/07/25 01:45:38;;;;;;;2.47;1.08;;;14.80;99.90;;;;;;5024404;28;20108;-72
2023/07/25 01:48:04;;;;;;;6.38;1.50;;;14.80;99.90;;;;;;5023842;28;20068;-72
2023/07/25 01:50:30;;;;;;;3.30;1.40;;;14.70;99.90;;;;;;5024887;28;20037;-73
2023/07/25 01:52:55;;;;;;;6.32;1.17;;;14.70;99.90;;;;;;5024534;28;20116;-72
2023/07/25 01:55:21;;;;;;;3.25;1.48;;;14.70;99.90;;;;;;5023040;28;20037;-72
2023/07/25 01:57:47;;;;;;;7.82;1.13;;;14.70;99.90;;;;;;5024381;28;20076;-72
2023/07/25 02:00:13;;;;;;;3.47;0.95;;;14.70;99.90;;;;;;5024120;28;20076;-71
2023/07/25 02:02:39;;;;;;;1.55;0.90;;;14.60;99.90;;;;;;5013347;28;20054;-72
2023/07/25 02:05:05;;;;;;;4.68;0.98;;;14.70;99.90;;;;;;5004472;28;20433;-72
2023/07/25 02:07:31;;;;;;;3.25;1.25;;;14.60;99.90;;;;;;5016210;28;20064;-73
2023/07/25 02:09:56;;;;;;;4.85;0.88;;;14.60;99.90;;;;;;5009313;28;20038;-71
2023/07/25 02:12:22;;;;;;;5.97;3.20;;;14.60;99.90;;;;;;5007226;28;20053;-72
2023/07/25 02:14:48;;;;;;;2.70;1.08;;;14.60;99.90;;;;;;5024098;28;20116;-72
2023/07/25 02:17:13;;;;;;;1.92;1.13;;;14.60;99.90;;;;;;5024049;28;20430;-71
2023/07/25 02:19:39;;;;;;;3.72;1.23;;;14.60;99.90;;;;;;5023544;28;20037;-72
2023/07/25 02:22:05;;;;;;;4.70;1.25;;;14.60;99.90;;;;;;5023655;28;20048;-72
2023/07/25 02:24:31;;;;;;;2.08;1.20;;;14.50;99.90;;;;;;5023859;28;20088;-72
2023/07/25 02:26:57;;;;;;;3.88;1.35;;;14.50;99.90;;;;;;5021245;28;20095;-72
2023/07/25 02:29:23;;;;;;;7.68;1.55;;;14.50;99.90;;;;;;5023265;28;20673;-72
2023/07/25 02:31:48;;;;;;;2.42;1.10;;;14.50;99.90;;;;;;5022623;28;20037;-72
2023/07/25 02:34:17;;;;;;;2.63;1.02;;;14.50;99.90;;;;;;5023226;28;20080;-71
2023/07/25 02:36:43;;;;;;;1.42;1.00;;;14.40;99.90;;;;;;5021739;28;20041;-71
2023/07/25 02:39:09;;;;;;;2.33;1.52;;;14.40;99.90;;;;;;5023575;28;20038;-72
2023/07/25 02:41:35;;;;;;;1.33;0.80;;;14.40;99.90;;;;;;5022590;28;20509;-72
2023/07/25 02:44:01;;;;;;;1.52;0.93;;;14.40;99.90;;;;;;5022606;28;20053;-72
2023/07/25 02:46:26;;;;;;;1.33;0.80;;;14.40;99.90;;;;;;5006047;28;20066;-72
2023/07/25 02:48:52;;;;;;;3.13;1.55;;;14.30;99.90;;;;;;5023570;28;20049;-72
2023/07/25 02:51:18;;;;;;;3.13;1.27;;;14.30;99.90;;;;;;5022330;28;20109;-72
2023/07/25 02:53:43;;;;;;;3.90;1.13;;;14.30;99.90;;;;;;5021787;28;20449;-71
2023/07/25 02:56:09;;;;;;;3.63;1.15;;;14.30;99.90;;;;;;5022574;28;20099;-72
2023/07/25 02:58:35;;;;;;;5.50;1.30;;;14.30;99.90;;;;;;5022998;28;20037;-71
2023/07/25 03:01:00;;;;;;;4.15;1.45;;;14.30;99.90;;;;;;5022960;28;20056;-72
2023/07/25 03:03:26;;;;;;;0.88;0.73;;;14.20;99.90;;;;;;5022128;28;20050;-72
2023/07/25 03:05:52;;;;;;;1.77;0.68;;;14.20;99.90;;;;;;5023000;28;20041;-72
2023/07/25 03:08:18;;;;;;;1.15;1.02;;;14.20;99.90;;;;;;5021225;28;20514;-72
2023/07/25 03:10:43;;;;;;;1.15;0.90;;;14.20;99.90;;;;;;5009465;28;20041;-72
2023/07/25 03:13:09;;;;;;;1.13;0.90;;;14.10;99.90;;;;;;5017989;28;20538;-72
2023/07/25 03:15:34;;;;;;;5.40;0.73;;;14.10;99.90;;;;;;5021217;28;20046;-72
2023/07/25 03:18:00;;;;;;;4.57;1.00;;;14.10;99.90;;;;;;5022646;28;20068;-73
2023/07/25 03:20:26;;;;;;;2.80;1.05;;;14.00;99.90;;;;;;5023512;28;20577;-72
2023/07/25 03:22:51;;;;;;;3.05;1.52;;;14.00;99.90;;;;;;5021030;28;20403;-72
2023/07/25 03:25:17;;;;;;;1.67;0.88;;;14.00;99.90;;;;;;5021404;28;20496;-72
2023/07/25 03:27:43;;;;;;;3.67;1.00;;;14.00;99.90;;;;;;5005754;28;20119;-72
2023/07/25 03:30:08;;;;;;;3.25;1.38;;;13.90;99.90;;;;;;5022529;28;20049;-72
2023/07/25 03:32:34;;;;;;;4.55;1.38;;;14.00;99.90;;;;;;5021381;28;20049;-72
2023/07/25 03:35:00;;;;;;;2.78;1.75;;;13.90;99.90;;;;;;5022604;28;20420;-73
2023/07/25 03:37:25;;;;;;;2.78;1.42;;;14.00;99.90;;;;;;5023352;28;20044;-72
2023/07/25 03:39:51;;;;;;;1.05;0.77;;;13.90;99.90;;;;;;5022519;28;20385;-72
2023/07/25 03:42:16;;;;;;;1.45;1.23;;;14.00;99.90;;;;;;5021789;28;20041;-72
2023/07/25 03:44:42;;;;;;;5.53;1.45;;;14.00;99.90;;;;;;5023174;28;20692;-72
2023/07/25 03:47:08;;;;;;;4.10;1.02;;;14.00;99.90;;;;;;5020732;28;20042;-72
2023/07/25 03:49:33;;;;;;;6.47;1.70;;;13.90;99.90;;;;;;5022714;28;20091;-72
2023/07/25 03:51:59;;;;;;;2.40;0.82;;;13.90;99.90;;;;;;5023734;28;20095;-72
2023/07/25 03:54:25;;;;;;;5.18;1.98;;;13.90;99.90;;;;;;5022650;28;20447;-71
2023/07/25 03:56:51;;;;;;;3.40;1.00;;;13.90;99.90;;;;;;5020405;28;20124;-72
2023/07/25 03:59:17;;;;;;;6.28;2.08;;;13.90;99.90;;;;;;5021646;28;20203;-72
2023/07/25 04:01:43;;;;;;;2.60;1.00;;;13.90;99.90;;;;;;5022242;28;20084;-72
2023/07/25 04:04:09;;;;;;;2.88;1.42;;;13.90;99.90;;;;;;5025518;28;20096;-72
2023/07/25 04:06:34;;;;;;;4.05;1.15;;;13.90;99.90;;;;;;5026132;28;20245;-72
2023/07/25 04:09:00;;;;;;;14.82;2.05;;;13.90;99.90;;;;;;5025917;28;20041;-72
2023/07/25 04:11:25;;;;;;;3.22;0.90;;;13.90;99.90;;;;;;5024867;28;20184;-72
2023/07/25 04:13:51;;;;;;;2.67;1.17;;;13.80;99.90;;;;;;5025978;28;21004;-72
2023/07/25 04:16:17;;;;;;;1.77;0.68;;;13.90;99.90;;;;;;5026235;28;20685;-71
2023/07/25 04:18:42;;;;;;;2.70;0.95;;;13.90;99.90;;;;;;5025568;28;20049;-72
2023/07/25 04:21:08;;;;;;;4.85;1.27;;;13.90;99.90;;;;;;5025167;28;20698;-72
2023/07/25 04:23:33;;;;;;;2.17;0.70;;;13.90;99.90;;;;;;5026068;28;20045;-72
2023/07/25 04:25:59;;;;;;;1.23;1.13;;;13.80;99.90;;;;;;5024904;28;20081;-72
2023/07/25 04:28:25;;;;;;;4.78;0.75;;;13.90;99.90;;;;;;5026205;28;20037;-72
2023/07/25 04:30:50;;;;;;;4.45;1.38;;;13.90;99.90;;;;;;5025902;28;20045;-72
2023/07/25 04:33:16;;;;;;;1.33;1.10;;;13.80;99.90;;;;;;5025472;28;20033;-72
2023/07/25 04:35:45;;;;;;;2.92;0.95;;;13.90;99.90;;;;;;5023748;28;20045;-72
2023/07/25 04:38:11;;;;;;;4.60;0.90;;;13.80;99.90;;;;;;5023933;28;20741;-72
2023/07/25 04:40:37;;;;;;;2.75;1.15;;;13.90;99.90;;;;;;5025209;28;20168;-72
2023/07/25 04:43:03;;;;;;;2.88;0.98;;;13.90;99.90;;;;;;5023882;28;20132;-72
2023/07/25 04:45:29;;;;;;;2.65;0.82;;;13.90;99.90;;;;;;5025617;28;20050;-72
2023/07/25 04:47:54;;;;;;;4.78;0.88;;;13.90;99.90;;;;;;5024573;28;20124;-72
2023/07/25 04:50:20;;;;;;;4.50;0.95;;;13.90;99.90;;;;;;5021281;28;20391;-72
2023/07/25 04:52:45;;;;;;;1.52;1.15;;;13.90;99.90;;;;;;5016959;28;20042;-71
2023/07/25 04:55:11;;;;;;;3.22;1.00;;;13.90;99.90;;;;;;5023013;28;20781;-72
2023/07/25 04:57:37;;;;;;;6.00;1.17;;;14.00;99.90;;;;;;5025378;28;20116;-71
2023/07/25 05:00:03;;;;;;;1.25;1.10;;;14.00;99.90;;;;;;5023756;28;20384;-72
2023/07/25 05:02:29;;;;;;;4.30;0.77;;;14.00;99.90;;;;;;5016316;28;20042;-72
2023/07/25 05:04:54;;;;;;;5.40;0.73;;;14.10;99.90;;;;;;5006093;28;20188;-72
2023/07/25 05:07:20;;;;;;;1.45;0.60;;;14.10;99.90;;;;;;5005337;28;20056;-71
2023/07/25 05:09:46;;;;;;;2.55;0.75;;;14.10;99.90;;;;;;5004806;28;20030;-73
2023/07/25 05:12:13;;;;;;;2.38;0.60;;;14.00;99.90;;;;;;5004811;28;20612;-72
2023/07/25 05:14:39;;;;;;;2.42;0.55;;;14.10;99.90;;;;;;5022894;28;20052;-72
2023/07/25 05:17:05;;;;;;;2.10;0.85;;;14.10;99.90;;;;;;5023345;28;20077;-72
2023/07/25 05:19:31;;;;;;;6.70;1.00;;;14.10;99.90;;;;;;5025063;28;20096;-72
2023/07/25 05:21:56;;;;;;;2.45;0.55;;;14.10;99.90;;;;;;5023692;28;20522;-72
2023/07/25 05:24:23;;;;;;;0.30;0.28;;;14.10;99.90;;;;;;5024519;28;20061;-72
2023/07/25 05:26:49;;;;;;;1.80;0.60;;;14.10;99.90;;;;;;5023984;28;20462;-72
2023/07/25 05:29:15;;;;;;;0.50;0.50;;;14.10;99.90;;;;;;5024531;28;20041;-72
2023/07/25 05:31:40;;;;;;;1.25;0.43;;;14.20;99.90;;;;;;5007096;28;20037;-72
2023/07/25 05:34:06;;;;;;;1.50;0.65;;;14.20;99.90;;;;;;5023818;28;20475;-72
2023/07/25 05:36:32;;;;;;;1.10;0.88;;;14.20;99.90;;;;;;5024713;28;20044;-72
2023/07/25 05:38:57;;;;;;;0.77;0.65;;;14.20;99.90;;;;;;5025063;28;20099;-72
2023/07/25 05:41:23;;;;;;;4.57;0.90;;;14.30;99.90;;;;;;5023305;28;20038;-71
2023/07/25 05:43:48;;;;;;;0.60;0.32;;;14.30;99.90;;;;;;5024412;28;20077;-72
2023/07/25 05:46:14;;;;;;;1.42;0.40;;;14.40;99.90;;;;;;5023296;28;20106;-72
2023/07/25 05:48:40;;;;;;;1.88;0.30;;;14.40;99.90;;;;;;5024420;28;20041;-71
2023/07/25 05:51:05;;;;;;;1.27;0.28;;;14.50;99.90;;;;;;5022522;28;20049;-72
2023/07/25 05:53:31;;;;;;;1.92;0.50;;;14.50;99.90;;;;;;5024315;28;20460;-72
2023/07/25 05:55:57;;;;;;;1.65;0.52;;;14.50;99.90;;;;;;5023727;28;20044;-72
2023/07/25 05:58:23;;;;;;;0.25;0.25;;;14.60;99.90;;;;;;5023730;28;20455;-71
2023/07/25 06:00:49;;;;;;;1.48;0.47;;;14.60;99.90;;;;;;5024036;28;20060;-72
2023/07/25 06:03:15;;;;;;;2.20;0.60;;;14.70;99.90;;;;;;5022695;28;20400;-71
2023/07/25 06:05:41;;;;;;;0.47;0.40;;;14.70;99.90;;;;;;5022724;28;20060;-72
2023/07/25 06:08:07;;;;;;;0.60;0.60;;;14.70;99.90;;;;;;5023293;28;20041;-72
2023/07/25 06:10:34;;;;;;;0.63;0.52;;;14.70;99.90;;;;;;5021561;28;20056;-72
2023/07/25 06:13:00;;;;;;;3.33;0.50;;;14.80;99.90;;;;;;5023537;28;20086;-73
2023/07/25 06:15:28;;;;;;;3.40;0.52;;;14.80;99.90;;;;;;5022488;28;20129;-72
2023/07/25 06:17:54;;;;;;;0.93;0.55;;;14.90;99.90;;;;;;5023879;28;20037;-72
2023/07/25 06:20:19;;;;;;;1.85;1.75;;;14.90;99.90;;;;;;5023544;28;20123;-72
2023/07/25 06:22:45;;;;;;;1.50;1.38;;;15.00;99.90;;;;;;5022099;28;20045;-72
2023/07/25 06:25:14;;;;;;;0.70;0.50;;;15.00;99.90;;;;;;5021517;28;20124;-72
2023/07/25 06:27:40;;;;;;;5.15;0.57;;;15.10;99.90;;;;;;5023780;28;20057;-72
2023/07/25 06:30:06;;;;;;;1.75;0.43;;;15.10;99.90;;;;;;5013872;28;20046;-73
2023/07/25 06:32:32;;;;;;;0.60;0.50;;;15.10;99.90;;;;;;5019741;28;20052;-73
2023/07/25 06:34:58;;;;;;;1.00;0.47;;;15.10;99.90;;;;;;5015445;28;20037;-72
2023/07/25 06:37:23;;;;;;;4.63;1.45;;;15.10;99.90;;;;;;5005723;28;20516;-73
2023/07/25 06:39:49;;;;;;;1.65;0.98;;;15.10;99.90;;;;;;5018736;28;20053;-72
2023/07/25 06:42:14;;;;;;;0.40;0.30;;;15.10;99.90;;;;;;5009905;28;20041;-72
2023/07/25 06:44:40;;;;;;;2.90;0.43;;;15.10;99.90;;;;;;5022060;28;20046;-72
2023/07/25 06:47:06;;;;;;;2.20;0.63;;;15.00;99.90;;;;;;5021936;28;20418;-72
2023/07/25 06:49:31;;;;;;;3.40;0.65;;;15.00;99.90;;;;;;5021367;28;20053;-72
2023/07/25 06:51:57;;;;;;;1.02;0.63;;;15.00;99.90;;;;;;5023074;28;20040;-73
2023/07/25 06:54:23;;;;;;;0.60;0.60;;;15.00;99.90;;;;;;5016049;28;20069;-72
2023/07/25 06:56:48;;;;;;;3.50;0.50;;;15.00;99.90;;;;;;5015887;28;20046;-72
2023/07/25 06:59:14;;;;;;;0.73;0.38;;;15.00;99.90;;;;;;5022477;28;20049;-72
2023/07/25 07:01:39;;;;;;;4.93;0.40;;;15.10;99.90;;;;;;5022393;28;20046;-72
2023/07/25 07:04:05;;;;;;;0.30;0.30;;;15.10;99.90;;;;;;5011219;28;20414;-73
2023/07/25 07:06:31;;;;;;;0.30;0.30;;;15.20;99.90;;;;;;5022728;28;20045;-73
2023/07/25 07:08:57;;;;;;;0.82;0.75;;;15.30;99.90;;;;;;5023530;28;20423;-73
2023/07/25 07:11:22;;;;;;;1.42;0.60;;;15.30;99.90;;;;;;5020782;28;20127;-73
2023/07/25 07:13:48;;;;;;;2.70;0.47;;;15.30;99.90;;;;;;5012366;28;20073;-71
2023/07/25 07:16:14;;;;;;;1.48;0.70;;;15.40;99.90;;;;;;5000488;28;20514;-71
2023/07/25 07:18:40;;;;;;;1.65;0.35;;;15.40;99.90;;;;;;5018337;28;20488;-71
2023/07/25 07:21:05;;;;;;;4.43;0.70;;;15.40;99.90;;;;;;5017777;28;20585;-70
2023/07/25 07:23:31;;;;;;;0.82;0.57;;;15.40;99.90;;;;;;5017032;28;20037;-71
2023/07/25 07:25:56;;;;;;;3.33;0.55;;;15.40;99.90;;;;;;5012438;28;20050;-71
2023/07/25 07:28:22;;;;;;;6.60;1.10;;;15.50;99.90;;;;;;5007214;28;20048;-71
2023/07/25 07:30:49;;;;;;;2.85;0.60;;;15.50;99.90;;;;;;5002322;28;20042;-71
2023/07/25 07:33:15;;;;;;;2.65;0.40;;;15.50;99.90;;;;;;5017026;28;20045;-71
2023/07/25 07:35:40;;;;;;;3.08;0.60;;;15.60;99.90;;;;;;5018927;28;20084;-71
2023/07/25 07:38:06;;;;;;;1.20;0.32;;;15.60;99.90;;;;;;5015568;28;20062;-73
2023/07/25 07:40:33;;;;;;;1.55;0.52;;;15.60;99.90;;;;;;5010771;28;20041;-75
2023/07/25 07:42:59;;;;;;;0.95;0.40;;;15.60;99.90;;;;;;5021899;28;20060;-72
2023/07/25 07:45:26;;;;;;;2.35;0.73;;;15.70;99.90;;;;;;5006651;28;20197;-71
2023/07/25 07:47:52;;;;;;;0.50;0.40;;;15.70;99.90;;;;;;5019278;28;20121;-72
2023/07/25 07:50:18;;;;;;;0.47;0.43;;;15.70;99.90;;;;;;5016298;28;20499;-72
2023/07/25 07:52:43;;;;;;;1.35;0.45;;;15.80;99.90;;;;;;5008280;28;20184;-72
2023/07/25 07:55:10;;;;;;;1.85;0.52;;;15.80;99.90;;;;;;5021099;28;20053;-72
2023/07/25 07:57:41;;;;;;;1.73;0.65;;;15.80;99.90;;;;;;5021440;28;20392;-73
2023/07/25 08:00:08;;;;;;;2.80;0.32;;;15.80;99.90;;;;;;5013584;28;20108;-75
2023/07/25 08:02:33;;;;;;;3.83;0.60;;;15.80;99.90;;;;;;5020274;28;20048;-74
2023/07/25 08:04:59;;;;;;;2.47;0.60;;;15.80;99.90;;;;;;5011076;28;20100;-75
2023/07/25 08:07:25;;;;;;;2.72;0.50;;;15.90;99.90;;;;;;5023399;28;20046;-73
2023/07/25 08:09:54;;;;;;;1.15;1.02;;;15.90;99.90;;;;;;5007545;28;20030;-74
2023/07/25 08:12:20;;;;;;;2.40;0.30;;;15.90;99.90;;;;;;5011298;28;20081;-74
2023/07/25 08:14:49;;;;;;;3.10;0.40;;;15.90;99.90;;;;;;5013174;28;20135;-74
2023/07/25 08:17:15;;;;;;;3.67;0.47;;;15.90;99.90;;;;;;5020865;28;20033;-73
2023/07/25 08:19:41;;;;;;;0.47;0.47;;;15.90;99.90;;;;;;5018711;28;20073;-74
2023/07/25 08:22:09;;;;;;;1.00;0.50;;;15.90;99.90;;;;;;5023209;28;20052;-73
2023/07/25 08:24:34;;;;;;;1.95;0.45;;;15.90;99.90;;;;;;5015901;28;20060;-72
2023/07/25 08:27:00;;;;;;;2.95;0.60;;;15.90;99.90;;;;;;4991234;28;20042;-73
2023/07/25 08:29:27;;;;;;;6.18;0.65;;;15.90;99.90;;;;;;5017646;28;20400;-73
2023/07/25 08:31:53;;;;;;;0.63;0.40;;;15.90;99.90;;;;;;5021419;28;20120;-72
2023/07/25 08:34:20;;;;;;;2.78;0.40;;;16.00;99.90;;;;;;5023515;28;20578;-74
2023/07/25 08:36:46;;;;;;;0.85;0.77;;;16.00;99.90;;;;;;5019967;28;20045;-74
2023/07/25 08:39:11;;;;;;;0.82;0.35;;;16.10;99.90;;;;;;5020546;28;20104;-75
2023/07/25 08:41:46;;;;;;;2.95;0.43;;;16.20;99.90;;;;;;5021004;28;20037;-74
2023/07/25 08:44:12;;;;;;;1.10;0.45;;;16.20;99.90;;;;;;5010756;28;20159;-74
2023/07/25 08:46:43;;;;;;;3.30;0.47;;;16.30;99.90;;;;;;5010349;28;20038;-73
2023/07/25 08:49:16;;;;;;;0.40;0.28;;;16.30;99.90;;;;;;5012972;28;20502;-73
2023/07/25 08:51:42;;;;;;;;;;;16.30;99.90;;;;;;5016309;28;20107;-76
2023/07/25 08:54:32;;;;;;;6.70;0.73;;;16.30;99.90;;;;;;5015025;28;19931;-77
2023/07/25 08:56:58;;;;;;;0.35;0.22;;;16.30;99.90;;;;;;5009938;28;20045;-84
2023/07/25 08:59:26;;;;;;;2.30;0.47;;;16.40;99.90;;;;;;5017646;28;20052;-88
2023/07/25 09:01:53;;;;;;;0.70;0.25;;;16.30;99.90;;;;;;5015122;28;20045;-80
2023/07/25 09:04:23;;;;;;;2.65;0.63;;;16.40;99.90;;;;;;5014342;28;20573;-74
2023/07/25 09:06:49;;;;;;;1.25;0.68;;;16.40;99.90;;;;;;5013215;28;20041;-74
2023/07/25 09:09:14;;;;;;;2.97;0.60;;;16.40;99.90;;;;;;5016842;28;20450;-73
2023/07/25 09:11:41;;;;;;;1.17;0.30;;;16.40;99.90;;;;;;4996378;28;20053;-74
2023/07/25 09:14:07;;;;;;;0.40;0.40;;;16.50;99.90;;;;;;5010449;28;20038;-73
2023/07/25 09:16:33;;;;;;;2.13;0.50;;;16.50;99.90;;;;;;5020592;28;20103;-73
2023/07/25 09:18:59;;;;;;;1.75;0.50;;;16.50;99.90;;;;;;5011963;28;20038;-74
2023/07/25 09:21:24;;;;;;;4.93;0.50;;;16.50;99.90;;;;;;5024491;28;20038;-73
2023/07/25 09:23:58;;;;;;;1.60;0.60;;;16.60;99.90;;;;;;5015720;28;20508;-74
2023/07/25 09:26:29;;;;;;;0.47;0.47;;;16.50;99.90;;;;;;5015826;28;20452;-74
2023/07/25 09:28:59;;;;;;;0.45;0.32;;;16.50;99.90;;;;;;5005679;28;20037;-73
2023/07/25 09:31:27;;;;;;;0.35;0.35;;;16.50;99.90;;;;;;5022772;28;20128;-73
2023/07/25 09:33:54;;;;;;;0.75;0.40;;;16.60;99.90;;;;;;5017753;28;20099;-74
2023/07/25 09:36:20;;;;;;;1.30;0.30;;;16.60;99.90;;;;;;5016365;28;20037;-74
2023/07/25 09:38:52;;;;;;;0.65;0.40;;;16.70;99.90;;;;;;5014787;28;20054;-74
2023/07/25 09:41:19;;;;;;;1.35;0.43;;;16.70;99.90;;;;;;5023135;28;20042;-74
2023/07/25 09:43:44;;;;;;;0.30;0.30;;;16.80;99.90;;;;;;5022941;28;20089;-74
2023/07/25 09:46:11;;;;;;;0.57;0.43;;;16.90;99.90;;;;;;5023408;28;20088;-74
2023/07/25 09:48:36;;;;;;;1.13;0.30;;;16.90;99.90;;;;;;5024236;28;20045;-74
2023/07/25 09:51:02;;;;;;;1.00;0.47;;;17.00;99.90;;;;;;5023476;28;20041;-74
2023/07/25 09:53:29;;;;;;;0.73;0.35;;;16.90;99.90;;;;;;5021373;28;20495;-75
2023/07/25 09:55:55;;;;;;;2.00;1.02;;;16.90;99.90;;;;;;5019337;28;20058;-72
2023/07/25 09:58:22;;;;;;;2.30;0.93;;;16.90;99.90;;;;;;5013954;28;20254;-73
2023/07/25 10:00:48;;;;;;;0.82;0.50;;;16.90;99.90;;;;;;5012160;28;20037;-73
2023/07/25 10:03:14;;;;;;;2.85;0.55;;;16.80;99.90;;;;;;5008295;28;20111;-73
2023/07/25 10:05:45;;;;;;;3.55;0.82;;;16.80;99.90;;;;;;5003016;28;20511;-73
2023/07/25 10:08:11;;;;;;;0.50;0.38;;;16.80;99.90;;;;;;5001757;28;20109;-73
2023/07/25 10:10:37;;;;;;;3.83;0.60;;;16.80;99.90;;;;;;5002219;28;20112;-73
2023/07/25 10:13:03;;;;;;;7.30;0.65;;;16.70;99.90;;;;;;5000697;28;20042;-74
2023/07/25 10:15:30;;;;;;;0.70;0.40;;;16.70;99.90;;;;;;5003021;28;20471;-73
2023/07/25 10:18:24;;;;;;;1.00;0.43;;;16.70;99.90;;;;;;5001771;28;20053;-73
2023/07/25 10:20:51;;;;;;;2.00;0.55;;;16.70;99.90;;;;;;5001428;28;21077;-73
2023/07/25 10:23:17;;;;;;;2.55;0.77;;;16.80;99.90;;;;;;5001781;28;20042;-73
2023/07/25 10:25:43;;;;;;;1.67;0.40;;;16.80;99.90;;;;;;5001672;28;20478;-73
2023/07/25 10:28:10;;;;;;;2.40;0.60;;;16.80;99.90;;;;;;5002552;28;20519;-73
2023/07/25 10:30:44;;;;;;;0.70;0.43;;;16.80;99.90;;;;;;5002798;28;20050;-74
2023/07/25 10:33:12;;;;;;;2.08;0.50;;;16.90;99.90;;;;;;5000928;28;20046;-74
2023/07/25 10:35:42;;;;;;;2.83;0.63;;;16.90;99.90;;;;;;5001334;28;20610;-74
2023/07/25 10:38:13;;;;;;;0.30;0.30;;;17.00;99.90;;;;;;5000544;28;20053;-74
2023/07/25 10:41:01;;;;;;;0.52;0.30;;;17.00;99.90;;;;;;5000515;28;20064;-73
2023/07/25 10:43:46;;;;;;;1.00;0.38;;;17.10;99.90;;;;;;5001180;28;20123;-73
2023/07/25 10:46:17;;;;;;;2.13;0.50;;;17.10;99.90;;;;;;5001715;28;20050;-73
2023/07/25 10:48:48;;;;;;;0.30;0.30;;;17.10;99.90;;;;;;5002180;28;20050;-73
2023/07/25 10:51:18;;;;;;;2.13;0.38;;;17.10;99.90;;;;;;5000699;28;20053;-73
2023/07/25 10:54:08;;;;;;;0.98;0.50;;;17.10;99.90;;;;;;5001486;28;20045;-73
2023/07/25 10:56:34;;;;;;;0.88;0.47;;;17.10;99.90;;;;;;5000976;28;20041;-73
2023/07/25 10:59:04;;;;;;;1.08;1.00;;;17.10;99.90;;;;;;5000089;28;20046;-74
2023/07/25 11:01:36;;;;;;;2.00;0.80;;;17.10;99.90;;;;;;5003029;28;20045;-74
2023/07/25 11:04:22;;;;;;;0.40;0.40;;;17.10;99.90;;;;;;5021060;28;20092;-73
2023/07/25 11:06:49;;;;;;;0.63;0.50;;;17.00;99.90;;;;;;5021968;28;20047;-73
2023/07/25 11:09:15;;;;;;;1.50;0.40;;;16.90;99.90;;;;;;5018704;28;20049;-73
2023/07/25 11:11:48;;;;;;;1.27;0.30;;;16.90;99.90;;;;;;5020195;28;20049;-73
2023/07/25 11:14:15;;;;;;;0.38;0.38;;;16.90;99.90;;;;;;5021105;28;20089;-73
2023/07/25 11:16:42;;;;;;;0.45;0.45;;;17.10;99.90;;;;;;5021452;28;20041;-73
2023/07/25 11:19:11;;;;;;;2.05;0.52;;;17.10;99.90;;;;;;5023937;28;20399;-73
2023/07/25 11:21:41;;;;;;;3.30;0.40;;;17.10;99.90;;;;;;5001278;28;20048;-73
2023/07/25 11:24:08;;;;;;;1.92;0.45;;;17.10;99.90;;;;;;4998938;28;20117;-73
2023/07/25 11:26:38;;;;;;;2.40;0.82;;;17.20;99.90;;;;;;5000453;28;20138;-73
2023/07/25 11:29:10;;;;;;;0.32;0.22;;;17.20;99.90;;;;;;5006201;28;20446;-73
2023/07/25 11:31:36;;;;;;;2.22;0.43;;;17.20;99.90;;;;;;5021738;28;20046;-74
2023/07/25 11:34:13;;;;;;;0.63;0.40;;;17.10;99.90;;;;;;5017765;28;20125;-73
2023/07/25 11:36:39;;;;;;;2.55;0.47;;;17.10;99.90;;;;;;5012236;28;20045;-73
2023/07/25 11:39:06;;;;;;;0.60;0.30;;;17.10;99.90;;;;;;5007066;28;20049;-73
2023/07/25 11:41:33;;;;;;;0.93;0.50;;;17.00;99.90;;;;;;5013871;28;20038;-74
2023/07/25 11:43:59;;;;;;;2.70;1.00;;;17.00;99.90;;;;;;5012231;28;20396;-81
2023/07/25 11:46:27;;;;;;;1.92;0.50;;;16.80;99.90;;;;;;4986392;28;20034;-73
2023/07/25 11:48:53;;;;;;;0.65;0.32;;;16.70;99.90;;;;;;5001072;28;20109;-74
2023/07/25 11:51:19;;;;;;;1.20;0.63;;;16.60;99.90;;;;;;5018809;28;20057;-75
2023/07/25 11:53:45;;;;;;;0.63;0.45;;;16.60;99.90;;;;;;5000868;28;20493;-75
2023/07/25 11:56:12;;;;;;;1.55;0.50;;;16.60;99.90;;;;;;5021561;28;20049;-74
2023/07/25 11:58:37;;;;;;;5.15;1.60;;;16.60;99.90;;;;;;5021102;28;20119;-74
2023/07/25 12:01:08;;;;;;;2.80;0.50;;;16.60;99.90;;;;;;5007420;28;20085;-75
2023/07/25 12:03:33;;;;;;;0.85;0.52;;;16.60;99.90;;;;;;5019870;28;20559;-74
2023/07/25 12:06:01;;;;;;;0.43;0.40;;;16.60;99.90;;;;;;5021473;28;20125;-74
2023/07/25 12:08:32;;;;;;;4.22;0.65;;;16.70;99.90;;;;;;5020964;28;20120;-75
2023/07/25 12:11:12;;;;;;;1.73;0.50;;;16.80;99.90;;;;;;5020641;28;20105;-74
2023/07/25 12:13:51;;;;;;;1.38;1.23;;;16.80;99.90;;;;;;5020372;28;20046;-75
2023/07/25 12:16:35;;;;;;;3.13;0.68;;;16.90;99.90;;;;;;5022422;28;20046;-74
2023/07/25 12:19:11;;;;;;;1.40;0.50;;;16.90;99.90;;;;;;5020888;28;20053;-76
2023/07/25 12:21:39;;;;;;;0.75;0.52;;;17.00;99.90;;;;;;5004779;28;20468;-75
2023/07/25 12:24:07;;;;;;;0.68;0.40;;;17.00;99.90;;;;;;5023039;28;20053;-75
2023/07/25 12:26:56;;;;;;;2.25;0.47;;;17.10;99.90;;;;;;5021762;28;20109;-75
2023/07/25 12:29:25;;;;;;;0.40;0.40;;;17.10;99.90;;;;;;5024275;28;20041;-74
2023/07/25 12:31:51;;;;;;;0.88;0.47;;;17.10;99.90;;;;;;5026038;28;20060;-76
2023/07/25 12:34:20;;;;;;;1.08;0.55;;;17.20;99.90;;;;;;5024565;28;20038;-79
2023/07/25 12:36:47;;;;;;;0.30;0.30;;;17.20;99.90;;;;;;5007505;28;20042;-76
2023/07/25 12:39:13;;;;;;;1.05;0.57;;;17.30;99.90;;;;;;5022855;28;20092;-76
2023/07/25 12:41:39;;;;;;;0.43;0.30;;;17.40;99.90;;;;;;5024048;28;20045;-76
2023/07/25 12:44:05;;;;;;;0.88;0.43;;;17.40;99.90;;;;;;5022820;28;20085;-76
2023/07/25 12:46:31;;;;;;;0.30;0.30;;;17.50;99.90;;;;;;5011759;28;20080;-76